createdAt,value
2017-08-20T00:00:16.402Z,84.75
2017-08-20T00:01:17.287Z,84.46
2017-08-20T00:02:17.931Z,84.07
2017-08-20T00:03:18.571Z,83.98
2017-08-20T00:04:19.198Z,83.69
2017-08-20T00:05:19.839Z,84.17
2017-08-20T00:06:20.478Z,83.98
2017-08-20T00:07:21.110Z,83.78
2017-08-20T00:08:21.751Z,84.07
2017-08-20T00:09:22.581Z,84.75
2017-08-20T00:10:23.218Z,84.75
2017-08-20T00:11:23.858Z,83.88
2017-08-20T00:12:24.489Z,83.98
2017-08-20T00:13:25.125Z,83.40
2017-08-20T00:14:25.759Z,82.92
2017-08-20T00:15:26.397Z,82.92
2017-08-20T00:16:27.049Z,83.50
2017-08-20T00:17:27.679Z,84.75
2017-08-20T00:18:28.520Z,83.98
2017-08-20T00:19:29.146Z,84.07
2017-08-20T00:20:29.787Z,83.98
2017-08-20T00:21:30.416Z,84.46
2017-08-20T00:22:31.051Z,84.55
2017-08-20T00:23:31.691Z,83.98
2017-08-20T00:24:32.327Z,84.55
2017-08-20T00:25:32.964Z,85.23
2017-08-20T00:26:33.802Z,85.52
2017-08-20T00:27:34.432Z,84.75
2017-08-20T00:28:35.068Z,84.36
2017-08-20T00:29:35.714Z,84.07
2017-08-20T00:30:36.343Z,83.98
2017-08-20T00:31:36.980Z,84.46
2017-08-20T00:32:37.614Z,84.46
2017-08-20T00:33:38.250Z,84.84
2017-08-20T00:34:39.095Z,85.42
2017-08-20T00:35:39.724Z,84.84
2017-08-20T00:36:40.358Z,84.27
2017-08-20T00:37:40.998Z,84.84
2017-08-20T00:38:41.640Z,84.27
2017-08-20T00:39:42.273Z,83.69
2017-08-20T00:40:42.905Z,83.78
2017-08-20T00:41:43.591Z,84.17
2017-08-20T00:42:44.425Z,84.17
2017-08-20T00:43:45.074Z,84.17
2017-08-20T00:44:45.710Z,83.20
2017-08-20T00:45:46.339Z,83.59
2017-08-20T00:46:46.980Z,83.78
2017-08-20T00:47:47.613Z,85.61
2017-08-20T00:48:48.254Z,85.13
2017-08-20T00:49:48.887Z,84.94
2017-08-20T00:50:49.521Z,84.46
2017-08-20T00:51:50.306Z,84.46
2017-08-20T00:52:50.941Z,84.46
2017-08-20T00:53:51.578Z,84.46
2017-08-20T00:54:52.217Z,84.61
2017-08-20T00:55:52.849Z,84.84
2017-08-20T00:56:53.488Z,83.98
2017-08-20T00:57:54.124Z,83.88
2017-08-20T00:58:54.764Z,84.12
2017-08-20T00:59:55.695Z,84.07
2017-08-20T01:00:56.328Z,84.07
2017-08-20T01:01:56.966Z,83.74
2017-08-20T01:02:57.551Z,83.45
2017-08-20T01:03:58.189Z,83.98
2017-08-20T01:04:58.823Z,84.61
2017-08-20T01:05:59.462Z,83.94
2017-08-20T01:07:00.104Z,83.84
2017-08-20T01:08:00.943Z,83.94
2017-08-20T01:09:01.570Z,84.42
2017-08-20T01:10:02.216Z,85.09
2017-08-20T01:11:02.852Z,85.09
2017-08-20T01:12:03.491Z,84.70
2017-08-20T01:13:04.122Z,84.42
2017-08-20T01:14:04.758Z,84.12
2017-08-20T01:15:05.393Z,85.19
2017-08-20T01:16:06.179Z,84.80
2017-08-20T01:17:06.817Z,85.47
2017-08-20T01:18:07.451Z,85.28
2017-08-20T01:19:08.085Z,85.28
2017-08-20T01:20:08.724Z,85.47
2017-08-20T01:21:09.359Z,84.99
2017-08-20T01:22:09.999Z,84.70
2017-08-20T01:23:10.635Z,84.03
2017-08-20T01:24:11.472Z,84.12
2017-08-20T01:25:12.106Z,83.55
2017-08-20T01:26:12.738Z,84.03
2017-08-20T01:27:13.373Z,83.94
2017-08-20T01:28:14.013Z,84.12
2017-08-20T01:29:14.649Z,84.52
2017-08-20T01:30:15.298Z,84.90
2017-08-20T01:31:15.926Z,84.61
2017-08-20T01:32:16.556Z,84.52
2017-08-20T01:33:17.393Z,84.03
2017-08-20T01:34:18.027Z,84.61
2017-08-20T01:35:18.669Z,83.64
2017-08-20T01:36:19.303Z,83.55
2017-08-20T01:37:19.941Z,83.94
2017-08-20T01:38:20.569Z,84.03
2017-08-20T01:39:21.207Z,84.12
2017-08-20T01:40:21.842Z,83.84
2017-08-20T01:41:22.677Z,84.32
2017-08-20T01:42:23.321Z,84.61
2017-08-20T01:43:24.002Z,84.99
2017-08-20T01:44:24.635Z,84.42
2017-08-20T01:45:25.273Z,84.61
2017-08-20T01:46:25.914Z,84.52
2017-08-20T01:47:26.604Z,84.61
2017-08-20T01:48:27.237Z,84.80
2017-08-20T01:49:28.081Z,85.19
2017-08-20T01:50:28.717Z,84.52
2017-08-20T01:51:29.349Z,84.80
2017-08-20T01:52:29.984Z,84.70
2017-08-20T01:53:30.617Z,83.64
2017-08-20T01:54:31.254Z,83.84
2017-08-20T01:55:31.888Z,83.84
2017-08-20T01:56:32.522Z,84.12
2017-08-20T01:57:33.358Z,83.16
2017-08-20T01:58:33.999Z,83.26
2017-08-20T01:59:34.629Z,83.16
2017-08-20T02:00:35.267Z,83.45
2017-08-20T02:01:35.901Z,83.45
2017-08-20T02:02:36.543Z,84.12
2017-08-20T02:03:37.173Z,84.32
2017-08-20T02:04:37.808Z,83.94
2017-08-20T02:05:38.444Z,83.74
2017-08-20T02:06:39.278Z,84.80
2017-08-20T02:07:39.911Z,84.90
2017-08-20T02:08:40.548Z,85.38
2017-08-20T02:09:41.182Z,85.96
2017-08-20T02:10:41.828Z,85.67
2017-08-20T02:11:42.462Z,85.77
2017-08-20T02:12:43.095Z,86.15
2017-08-20T02:13:43.734Z,85.67
2017-08-20T02:14:44.574Z,85.67
2017-08-20T02:15:45.210Z,85.86
2017-08-20T02:16:45.841Z,85.47
2017-08-20T02:17:46.478Z,84.70
2017-08-20T02:18:47.118Z,85.86
2017-08-20T02:19:47.752Z,85.67
2017-08-20T02:20:48.391Z,84.90
2017-08-20T02:21:49.024Z,84.70
2017-08-20T02:22:49.958Z,85.38
2017-08-20T02:23:50.593Z,84.99
2017-08-20T02:24:51.238Z,84.70
2017-08-20T02:25:51.873Z,85.96
2017-08-20T02:26:52.502Z,85.57
2017-08-20T02:27:53.144Z,84.90
2017-08-20T02:28:53.780Z,84.70
2017-08-20T02:29:54.412Z,84.61
2017-08-20T02:30:55.252Z,84.90
2017-08-20T02:31:55.882Z,84.70
2017-08-20T02:32:56.528Z,84.99
2017-08-20T02:33:57.154Z,84.70
2017-08-20T02:34:57.795Z,85.19
2017-08-20T02:35:58.435Z,85.77
2017-08-20T02:36:59.065Z,85.09
2017-08-20T02:37:59.699Z,84.90
2017-08-20T02:39:00.538Z,84.42
2017-08-20T02:40:01.174Z,84.80
2017-08-20T02:41:01.813Z,85.09
2017-08-20T02:42:02.450Z,85.19
2017-08-20T02:43:03.082Z,85.67
2017-08-20T02:44:03.718Z,84.80
2017-08-20T02:45:04.351Z,84.22
2017-08-20T02:46:04.986Z,84.70
2017-08-20T02:47:05.622Z,84.61
2017-08-20T02:48:06.508Z,85.19
2017-08-20T02:49:07.142Z,85.67
2017-08-20T02:50:07.781Z,85.77
2017-08-20T02:51:08.419Z,85.77
2017-08-20T02:52:09.052Z,85.86
2017-08-20T02:53:09.696Z,85.47
2017-08-20T02:54:10.337Z,85.09
2017-08-20T02:55:10.977Z,85.96
2017-08-20T02:56:11.809Z,85.47
2017-08-20T02:57:12.443Z,85.67
2017-08-20T02:58:13.076Z,85.57
2017-08-20T02:59:13.716Z,85.86
2017-08-20T03:00:14.350Z,86.44
2017-08-20T03:01:14.984Z,85.86
2017-08-20T03:02:15.617Z,85.86
2017-08-20T03:03:16.252Z,85.86
2017-08-20T03:04:17.087Z,85.38
2017-08-20T03:05:17.721Z,86.05
2017-08-20T03:06:18.355Z,85.77
2017-08-20T03:07:18.991Z,84.99
2017-08-20T03:08:19.630Z,85.28
2017-08-20T03:09:20.263Z,86.15
2017-08-20T03:10:20.899Z,85.57
2017-08-20T03:11:21.541Z,85.57
2017-08-20T03:12:22.371Z,85.96
2017-08-20T03:13:23.008Z,86.15
2017-08-20T03:14:23.647Z,85.77
2017-08-20T03:15:24.283Z,85.28
2017-08-20T03:16:24.920Z,85.96
2017-08-20T03:17:25.553Z,85.28
2017-08-20T03:18:26.198Z,85.77
2017-08-20T03:19:26.827Z,85.57
2017-08-20T03:20:27.468Z,85.09
2017-08-20T03:21:28.304Z,85.47
2017-08-20T03:22:28.935Z,85.47
2017-08-20T03:23:29.575Z,84.42
2017-08-20T03:24:30.207Z,85.67
2017-08-20T03:25:30.841Z,83.84
2017-08-20T03:26:31.482Z,84.80
2017-08-20T03:27:32.112Z,84.80
2017-08-20T03:28:32.755Z,84.52
2017-08-20T03:29:33.585Z,84.61
2017-08-20T03:30:34.229Z,84.32
2017-08-20T03:31:34.867Z,84.80
2017-08-20T03:32:35.508Z,85.77
2017-08-20T03:33:36.136Z,85.67
2017-08-20T03:34:36.775Z,85.86
2017-08-20T03:35:37.414Z,85.28
2017-08-20T03:36:38.044Z,84.12
2017-08-20T03:37:38.885Z,85.47
2017-08-20T03:38:39.523Z,84.32
2017-08-20T03:39:40.159Z,85.86
2017-08-20T03:40:40.790Z,85.47
2017-08-20T03:41:41.431Z,85.67
2017-08-20T03:42:42.074Z,84.70
2017-08-20T03:43:42.708Z,86.15
2017-08-20T03:44:43.338Z,84.61
2017-08-20T03:45:44.179Z,84.52
2017-08-20T03:46:44.810Z,85.53
2017-08-20T03:47:45.451Z,85.19
2017-08-20T03:48:46.088Z,86.01
2017-08-20T03:49:46.727Z,85.53
2017-08-20T03:50:47.357Z,85.91
2017-08-20T03:51:47.991Z,85.63
2017-08-20T03:52:48.628Z,85.53
2017-08-20T03:53:49.418Z,85.63
2017-08-20T03:54:50.054Z,85.53
2017-08-20T03:55:50.693Z,84.80
2017-08-20T03:56:51.341Z,85.47
2017-08-20T03:57:52.027Z,86.11
2017-08-20T03:58:52.657Z,85.63
2017-08-20T03:59:53.298Z,86.01
2017-08-20T04:00:53.933Z,85.96
2017-08-20T04:01:54.574Z,85.53
2017-08-20T04:02:55.406Z,85.24
2017-08-20T04:03:56.292Z,85.86
2017-08-20T04:04:56.925Z,84.28
2017-08-20T04:05:57.565Z,85.24
2017-08-20T04:06:58.200Z,84.86
2017-08-20T04:07:58.887Z,83.51
2017-08-20T04:08:59.521Z,84.95
2017-08-20T04:10:00.155Z,85.67
2017-08-20T04:11:00.989Z,84.70
2017-08-20T04:12:01.630Z,85.77
2017-08-20T04:13:02.262Z,85.05
2017-08-20T04:14:02.897Z,85.72
2017-08-20T04:15:03.539Z,85.82
2017-08-20T04:16:04.168Z,85.63
2017-08-20T04:17:04.809Z,86.01
2017-08-20T04:18:05.444Z,85.82
2017-08-20T04:19:06.283Z,85.91
2017-08-20T04:20:06.914Z,85.77
2017-08-20T04:21:07.558Z,86.11
2017-08-20T04:22:08.195Z,85.96
2017-08-20T04:23:08.889Z,86.05
2017-08-20T04:24:09.518Z,85.82
2017-08-20T04:25:10.156Z,85.63
2017-08-20T04:26:10.793Z,84.76
2017-08-20T04:27:11.579Z,83.94
2017-08-20T04:28:12.210Z,83.80
2017-08-20T04:29:12.845Z,84.37
2017-08-20T04:30:13.479Z,83.80
2017-08-20T04:31:14.114Z,84.09
2017-08-20T04:32:14.750Z,83.99
2017-08-20T04:33:15.385Z,83.70
2017-08-20T04:34:16.017Z,83.80
2017-08-20T04:35:16.662Z,84.56
2017-08-20T04:36:17.496Z,84.56
2017-08-20T04:37:18.133Z,84.95
2017-08-20T04:38:18.763Z,84.95
2017-08-20T04:39:19.397Z,85.82
2017-08-20T04:40:20.042Z,85.82
2017-08-20T04:41:20.669Z,85.53
2017-08-20T04:42:21.309Z,85.82
2017-08-20T04:43:21.955Z,86.78
2017-08-20T04:44:22.785Z,85.63
2017-08-20T04:45:23.417Z,86.11
2017-08-20T04:46:24.058Z,86.69
2017-08-20T04:47:24.696Z,85.82
2017-08-20T04:48:25.382Z,85.63
2017-08-20T04:49:26.020Z,86.01
2017-08-20T04:50:26.651Z,85.82
2017-08-20T04:51:27.287Z,85.53
2017-08-20T04:52:28.171Z,85.53
2017-08-20T04:53:28.806Z,84.95
2017-08-20T04:54:29.441Z,85.72
2017-08-20T04:55:30.080Z,85.63
2017-08-20T04:56:30.714Z,85.05
2017-08-20T04:57:31.349Z,85.82
2017-08-20T04:58:31.990Z,86.01
2017-08-20T04:59:32.620Z,85.24
2017-08-20T05:00:33.403Z,85.72
2017-08-20T05:01:34.042Z,84.95
2017-08-20T05:02:34.680Z,84.66
2017-08-20T05:03:35.311Z,84.56
2017-08-20T05:04:35.903Z,84.56
2017-08-20T05:05:36.539Z,86.59
2017-08-20T05:06:37.181Z,85.24
2017-08-20T05:07:37.815Z,85.82
2017-08-20T05:08:38.752Z,85.53
2017-08-20T05:09:39.388Z,85.72
2017-08-20T05:10:40.022Z,85.24
2017-08-20T05:11:40.661Z,85.43
2017-08-20T05:12:41.293Z,85.91
2017-08-20T05:13:41.926Z,86.40
2017-08-20T05:14:42.561Z,86.01
2017-08-20T05:15:43.197Z,86.69
2017-08-20T05:16:43.829Z,85.82
2017-08-20T05:17:44.620Z,85.63
2017-08-20T05:18:45.257Z,85.91
2017-08-20T05:19:45.888Z,87.36
2017-08-20T05:20:46.528Z,86.59
2017-08-20T05:21:47.160Z,86.78
2017-08-20T05:22:47.798Z,86.98
2017-08-20T05:23:48.431Z,87.65
2017-08-20T05:24:49.064Z,86.49
2017-08-20T05:25:49.900Z,86.88
2017-08-20T05:26:50.538Z,86.30
2017-08-20T05:27:51.175Z,86.69
2017-08-20T05:28:51.807Z,87.07
2017-08-20T05:29:52.447Z,86.59
2017-08-20T05:30:53.028Z,87.46
2017-08-20T05:31:53.668Z,87.07
2017-08-20T05:32:54.298Z,85.82
2017-08-20T05:33:55.182Z,86.78
2017-08-20T05:34:55.821Z,86.78
2017-08-20T05:35:56.454Z,86.69
2017-08-20T05:36:57.085Z,86.69
2017-08-20T05:37:57.727Z,86.21
2017-08-20T05:38:58.360Z,86.69
2017-08-20T05:39:58.990Z,86.88
2017-08-20T05:40:59.636Z,86.69
2017-08-20T05:42:00.422Z,86.59
2017-08-20T05:43:01.058Z,86.78
2017-08-20T05:44:01.691Z,86.30
2017-08-20T05:45:02.333Z,86.40
2017-08-20T05:46:02.966Z,86.78
2017-08-20T05:47:03.602Z,86.59
2017-08-20T05:48:04.241Z,86.59
2017-08-20T05:49:04.880Z,86.01
2017-08-20T05:50:05.515Z,86.49
2017-08-20T05:51:06.405Z,86.69
2017-08-20T05:52:07.088Z,86.69
2017-08-20T05:53:07.771Z,86.59
2017-08-20T05:54:08.407Z,85.82
2017-08-20T05:55:09.040Z,85.91
2017-08-20T05:56:09.673Z,85.82
2017-08-20T05:57:10.309Z,85.63
2017-08-20T05:58:10.942Z,85.53
2017-08-20T05:59:11.734Z,85.63
2017-08-20T06:00:12.366Z,85.72
2017-08-20T06:01:13.006Z,85.82
2017-08-20T06:02:13.643Z,86.01
2017-08-20T06:03:14.272Z,86.01
2017-08-20T06:04:14.904Z,86.59
2017-08-20T06:05:15.553Z,86.88
2017-08-20T06:06:16.184Z,86.40
2017-08-20T06:07:17.273Z,85.82
2017-08-20T06:08:17.914Z,86.59
2017-08-20T06:09:18.550Z,86.11
2017-08-20T06:10:19.187Z,85.72
2017-08-20T06:11:19.818Z,86.59
2017-08-20T06:12:20.465Z,85.82
2017-08-20T06:13:21.092Z,86.11
2017-08-20T06:14:21.733Z,86.98
2017-08-20T06:15:22.565Z,86.69
2017-08-20T06:16:23.199Z,87.07
2017-08-20T06:17:23.841Z,86.98
2017-08-20T06:18:24.471Z,87.46
2017-08-20T06:19:25.107Z,87.55
2017-08-20T06:20:25.743Z,86.98
2017-08-20T06:21:26.375Z,87.26
2017-08-20T06:22:27.017Z,87.46
2017-08-20T06:23:27.844Z,87.65
2017-08-20T06:24:28.477Z,87.36
2017-08-20T06:25:29.062Z,87.46
2017-08-20T06:26:29.697Z,87.46
2017-08-20T06:27:30.334Z,87.65
2017-08-20T06:28:30.967Z,88.51
2017-08-20T06:29:31.605Z,87.46
2017-08-20T06:30:32.234Z,87.55
2017-08-20T06:31:32.881Z,87.55
2017-08-20T06:32:33.718Z,87.46
2017-08-20T06:33:34.353Z,87.46
2017-08-20T06:34:34.982Z,87.07
2017-08-20T06:35:35.620Z,87.46
2017-08-20T06:36:36.312Z,88.32
2017-08-20T06:37:36.949Z,88.13
2017-08-20T06:38:37.580Z,86.88
2017-08-20T06:39:38.215Z,87.17
2017-08-20T06:40:39.049Z,87.55
2017-08-20T06:41:39.689Z,88.32
2017-08-20T06:42:40.325Z,87.65
2017-08-20T06:43:40.961Z,87.36
2017-08-20T06:44:41.593Z,87.65
2017-08-20T06:45:42.234Z,88.13
2017-08-20T06:46:42.871Z,88.13
2017-08-20T06:47:43.502Z,88.32
2017-08-20T06:48:44.338Z,87.46
2017-08-20T06:49:44.972Z,87.46
2017-08-20T06:50:45.618Z,87.46
2017-08-20T06:51:46.251Z,88.23
2017-08-20T06:52:46.920Z,87.94
2017-08-20T06:53:47.514Z,88.04
2017-08-20T06:54:48.154Z,88.04
2017-08-20T06:55:48.791Z,88.32
2017-08-20T06:56:49.621Z,88.23
2017-08-20T06:57:50.258Z,88.32
2017-08-20T06:58:50.897Z,88.04
2017-08-20T06:59:51.530Z,88.04
2017-08-20T07:00:52.164Z,88.04
2017-08-20T07:01:52.802Z,88.42
2017-08-20T07:02:53.488Z,88.32
2017-08-20T07:03:54.119Z,87.94
2017-08-20T07:04:54.756Z,88.32
2017-08-20T07:05:55.591Z,88.61
2017-08-20T07:06:56.226Z,88.61
2017-08-20T07:07:56.870Z,88.71
2017-08-20T07:08:57.496Z,88.61
2017-08-20T07:09:58.135Z,88.51
2017-08-20T07:10:58.765Z,88.51
2017-08-20T07:11:59.399Z,87.94
2017-08-20T07:13:00.044Z,88.23
2017-08-20T07:14:00.878Z,88.13
2017-08-20T07:15:01.518Z,88.13
2017-08-20T07:16:02.167Z,88.13
2017-08-20T07:17:02.840Z,88.23
2017-08-20T07:18:03.478Z,88.61
2017-08-20T07:19:04.112Z,88.61
2017-08-20T07:20:04.751Z,88.23
2017-08-20T07:21:05.391Z,88.51
2017-08-20T07:22:06.224Z,88.42
2017-08-20T07:23:06.860Z,88.42
2017-08-20T07:24:07.499Z,87.94
2017-08-20T07:25:08.131Z,87.84
2017-08-20T07:26:08.765Z,88.04
2017-08-20T07:27:09.400Z,88.04
2017-08-20T07:28:10.035Z,88.04
2017-08-20T07:29:10.671Z,88.13
2017-08-20T07:30:11.557Z,87.84
2017-08-20T07:31:12.195Z,88.13
2017-08-20T07:32:12.825Z,88.13
2017-08-20T07:33:13.469Z,88.04
2017-08-20T07:34:14.105Z,87.94
2017-08-20T07:35:14.737Z,88.13
2017-08-20T07:36:15.377Z,88.23
2017-08-20T07:37:16.013Z,88.13
2017-08-20T07:38:16.856Z,88.32
2017-08-20T07:39:17.484Z,88.42
2017-08-20T07:40:18.116Z,88.23
2017-08-20T07:41:18.752Z,87.55
2017-08-20T07:42:19.386Z,87.65
2017-08-20T07:43:20.030Z,87.60
2017-08-20T07:44:20.670Z,88.13
2017-08-20T07:45:21.300Z,87.94
2017-08-20T07:46:21.941Z,87.94
2017-08-20T07:47:22.781Z,87.98
2017-08-20T07:48:23.421Z,87.79
2017-08-20T07:49:24.053Z,87.94
2017-08-20T07:50:24.689Z,88.04
2017-08-20T07:51:25.327Z,87.94
2017-08-20T07:52:25.960Z,88.23
2017-08-20T07:53:26.596Z,87.46
2017-08-20T07:54:27.233Z,87.40
2017-08-20T07:55:28.066Z,87.50
2017-08-20T07:56:28.700Z,87.79
2017-08-20T07:57:29.334Z,87.40
2017-08-20T07:58:29.969Z,87.60
2017-08-20T07:59:30.609Z,87.79
2017-08-20T08:00:31.241Z,87.40
2017-08-20T08:01:31.876Z,87.50
2017-08-20T08:02:32.512Z,87.70
2017-08-20T08:03:33.351Z,87.70
2017-08-20T08:04:33.987Z,87.79
2017-08-20T08:05:34.625Z,87.60
2017-08-20T08:06:35.256Z,87.60
2017-08-20T08:07:35.889Z,87.60
2017-08-20T08:08:36.529Z,87.60
2017-08-20T08:09:37.173Z,86.82
2017-08-20T08:10:37.809Z,87.02
2017-08-20T08:11:38.644Z,87.30
2017-08-20T08:12:39.279Z,86.63
2017-08-20T08:13:39.918Z,86.82
2017-08-20T08:14:40.548Z,86.73
2017-08-20T08:15:41.183Z,86.92
2017-08-20T08:16:41.819Z,87.12
2017-08-20T08:17:42.458Z,87.02
2017-08-20T08:18:43.092Z,86.44
2017-08-20T08:19:43.732Z,86.63
2017-08-20T08:20:44.563Z,86.63
2017-08-20T08:21:45.209Z,86.82
2017-08-20T08:22:45.844Z,86.44
2017-08-20T08:23:46.488Z,86.54
2017-08-20T08:24:47.122Z,86.92
2017-08-20T08:25:47.753Z,86.63
2017-08-20T08:26:48.392Z,86.82
2017-08-20T08:27:49.024Z,86.54
2017-08-20T08:28:50.713Z,87.02
2017-08-20T08:29:51.360Z,86.82
2017-08-20T08:30:51.996Z,86.63
2017-08-20T08:31:52.636Z,86.73
2017-08-20T08:32:53.270Z,86.82
2017-08-20T08:33:53.908Z,86.63
2017-08-20T08:34:54.538Z,86.73
2017-08-20T08:35:55.179Z,86.44
2017-08-20T08:36:56.009Z,86.63
2017-08-20T08:37:56.646Z,86.63
2017-08-20T08:38:57.280Z,86.73
2017-08-20T08:39:57.921Z,86.77
2017-08-20T08:40:58.551Z,86.48
2017-08-20T08:41:59.193Z,86.35
2017-08-20T08:42:59.830Z,85.91
2017-08-20T08:44:00.462Z,86.00
2017-08-20T08:45:01.245Z,86.00
2017-08-20T08:46:01.880Z,85.91
2017-08-20T08:47:02.514Z,86.10
2017-08-20T08:48:03.155Z,86.00
2017-08-20T08:49:03.796Z,86.10
2017-08-20T08:50:04.431Z,86.39
2017-08-20T08:51:05.068Z,85.81
2017-08-20T08:52:05.706Z,86.00
2017-08-20T08:53:06.545Z,85.91
2017-08-20T08:54:07.177Z,86.10
2017-08-20T08:55:07.819Z,85.71
2017-08-20T08:56:08.471Z,85.81
2017-08-20T08:57:09.087Z,85.81
2017-08-20T08:58:09.729Z,85.91
2017-08-20T08:59:10.363Z,86.19
2017-08-20T09:00:10.996Z,86.29
2017-08-20T09:01:11.637Z,85.61
2017-08-20T09:02:12.420Z,85.91
2017-08-20T09:03:13.057Z,85.81
2017-08-20T09:04:13.692Z,85.81
2017-08-20T09:05:14.327Z,85.81
2017-08-20T09:06:14.962Z,85.61
2017-08-20T09:07:15.601Z,85.81
2017-08-20T09:08:16.240Z,85.23
2017-08-20T09:09:16.884Z,85.91
2017-08-20T09:10:17.711Z,85.91
2017-08-20T09:11:18.353Z,85.52
2017-08-20T09:12:18.987Z,85.71
2017-08-20T09:13:19.631Z,85.03
2017-08-20T09:14:20.267Z,85.13
2017-08-20T09:15:20.898Z,85.33
2017-08-20T09:16:21.540Z,85.61
2017-08-20T09:17:22.173Z,85.42
2017-08-20T09:18:23.007Z,84.89
2017-08-20T09:19:23.652Z,84.84
2017-08-20T09:20:24.338Z,85.17
2017-08-20T09:21:24.972Z,84.84
2017-08-20T09:22:25.608Z,84.50
2017-08-20T09:23:26.249Z,84.69
2017-08-20T09:24:26.884Z,84.50
2017-08-20T09:25:27.523Z,84.69
2017-08-20T09:26:28.361Z,84.89
2017-08-20T09:27:29.000Z,84.69
2017-08-20T09:28:29.637Z,84.50
2017-08-20T09:29:30.269Z,84.41
2017-08-20T09:30:30.902Z,84.01
2017-08-20T09:31:31.541Z,83.83
2017-08-20T09:32:32.173Z,83.83
2017-08-20T09:33:32.811Z,84.01
2017-08-20T09:34:33.458Z,84.11
2017-08-20T09:35:34.296Z,84.21
2017-08-20T09:36:34.928Z,83.83
2017-08-20T09:37:35.563Z,84.21
2017-08-20T09:38:36.201Z,84.01
2017-08-20T09:39:36.833Z,84.31
2017-08-20T09:40:37.465Z,84.01
2017-08-20T09:41:38.103Z,83.53
2017-08-20T09:42:38.737Z,83.53
2017-08-20T09:43:39.673Z,83.25
2017-08-20T09:44:40.310Z,83.15
2017-08-20T09:45:40.947Z,83.25
2017-08-20T09:46:41.581Z,83.25
2017-08-20T09:47:42.215Z,83.34
2017-08-20T09:48:42.851Z,83.15
2017-08-20T09:49:43.485Z,82.67
2017-08-20T09:50:44.118Z,82.48
2017-08-20T09:51:45.012Z,82.48
2017-08-20T09:52:45.643Z,81.90
2017-08-20T09:53:46.289Z,81.90
2017-08-20T09:54:46.979Z,81.70
2017-08-20T09:55:47.621Z,81.32
2017-08-20T09:56:48.261Z,80.74
2017-08-20T09:57:48.892Z,80.74
2017-08-20T09:58:49.527Z,80.83
2017-08-20T09:59:50.361Z,80.35
2017-08-20T10:00:51.003Z,80.35
2017-08-20T10:01:51.640Z,80.45
2017-08-20T10:02:52.274Z,80.06
2017-08-20T10:03:52.911Z,80.26
2017-08-20T10:04:53.546Z,79.68
2017-08-20T10:05:54.180Z,80.26
2017-08-20T10:06:54.814Z,79.68
2017-08-20T10:07:55.653Z,79.77
2017-08-20T10:08:56.294Z,79.49
2017-08-20T10:09:56.935Z,79.68
2017-08-20T10:10:57.572Z,79.10
2017-08-20T10:11:58.203Z,78.91
2017-08-20T10:12:58.838Z,79.19
2017-08-20T10:13:59.478Z,78.81
2017-08-20T10:15:00.117Z,79.43
2017-08-20T10:16:00.748Z,78.94
2017-08-20T10:17:01.585Z,79.24
2017-08-20T10:18:02.224Z,79.00
2017-08-20T10:19:02.862Z,79.00
2017-08-20T10:20:03.504Z,79.24
2017-08-20T10:21:04.134Z,78.85
2017-08-20T10:22:04.771Z,78.66
2017-08-20T10:23:05.404Z,78.94
2017-08-20T10:24:06.039Z,78.71
2017-08-20T10:25:06.825Z,78.85
2017-08-20T10:26:07.461Z,78.66
2017-08-20T10:27:08.106Z,78.56
2017-08-20T10:28:08.733Z,78.66
2017-08-20T10:29:09.367Z,78.85
2017-08-20T10:30:10.011Z,78.75
2017-08-20T10:31:10.641Z,78.75
2017-08-20T10:32:11.282Z,78.75
2017-08-20T10:33:12.125Z,78.56
2017-08-20T10:34:12.753Z,78.56
2017-08-20T10:35:13.397Z,78.56
2017-08-20T10:36:14.031Z,78.56
2017-08-20T10:37:14.679Z,78.66
2017-08-20T10:38:15.316Z,78.85
2017-08-20T10:39:15.959Z,78.46
2017-08-20T10:40:16.594Z,78.56
2017-08-20T10:41:17.387Z,78.56
2017-08-20T10:42:18.021Z,78.66
2017-08-20T10:43:18.652Z,78.85
2017-08-20T10:44:19.289Z,78.75
2017-08-20T10:45:19.923Z,78.66
2017-08-20T10:46:20.565Z,78.56
2017-08-20T10:47:21.194Z,78.27
2017-08-20T10:48:21.837Z,78.75
2017-08-20T10:49:22.470Z,78.27
2017-08-20T10:50:23.307Z,78.46
2017-08-20T10:51:23.944Z,78.56
2017-08-20T10:52:24.580Z,78.56
2017-08-20T10:53:25.215Z,78.56
2017-08-20T10:54:25.853Z,78.66
2017-08-20T10:55:26.494Z,78.56
2017-08-20T10:56:27.131Z,78.56
2017-08-20T10:57:27.769Z,78.56
2017-08-20T10:58:28.559Z,78.46
2017-08-20T10:59:29.199Z,78.56
2017-08-20T11:00:29.835Z,78.75
2017-08-20T11:01:30.476Z,78.56
2017-08-20T11:02:31.116Z,78.56
2017-08-20T11:03:31.752Z,78.75
2017-08-20T11:04:32.384Z,78.56
2017-08-20T11:05:33.029Z,78.66
2017-08-20T11:06:33.865Z,78.66
2017-08-20T11:07:34.506Z,78.66
2017-08-20T11:08:35.139Z,78.56
2017-08-20T11:09:35.777Z,78.75
2017-08-20T11:10:36.413Z,78.66
2017-08-20T11:11:37.055Z,78.56
2017-08-20T11:12:37.689Z,78.75
2017-08-20T11:13:38.326Z,78.75
2017-08-20T11:14:39.111Z,78.75
2017-08-20T11:15:39.752Z,78.85
2017-08-20T11:16:40.389Z,79.04
2017-08-20T11:17:41.041Z,78.75
2017-08-20T11:18:41.662Z,78.66
2017-08-20T11:19:42.305Z,78.36
2017-08-20T11:20:42.944Z,78.46
2017-08-20T11:21:43.577Z,79.04
2017-08-20T11:22:44.420Z,78.27
2017-08-20T11:23:45.058Z,78.17
2017-08-20T11:24:45.698Z,78.46
2017-08-20T11:25:46.386Z,78.08
2017-08-20T11:26:47.021Z,78.08
2017-08-20T11:27:47.661Z,78.17
2017-08-20T11:28:48.302Z,78.27
2017-08-20T11:29:48.935Z,78.41
2017-08-20T11:30:49.577Z,78.17
2017-08-20T11:31:50.569Z,77.83
2017-08-20T11:32:51.204Z,78.02
2017-08-20T11:33:51.846Z,78.02
2017-08-20T11:34:52.483Z,78.31
2017-08-20T11:35:53.117Z,78.21
2017-08-20T11:36:53.760Z,77.92
2017-08-20T11:37:54.403Z,78.31
2017-08-20T11:38:55.040Z,78.31
2017-08-20T11:39:55.922Z,78.11
2017-08-20T11:40:56.560Z,78.11
2017-08-20T11:41:57.202Z,78.02
2017-08-20T11:42:57.841Z,77.83
2017-08-20T11:43:58.487Z,78.11
2017-08-20T11:44:59.117Z,77.83
2017-08-20T11:45:59.759Z,78.21
2017-08-20T11:47:00.397Z,78.11
2017-08-20T11:48:01.285Z,77.83
2017-08-20T11:49:01.924Z,77.83
2017-08-20T11:50:02.561Z,77.83
2017-08-20T11:51:03.198Z,77.92
2017-08-20T11:52:03.834Z,77.83
2017-08-20T11:53:04.471Z,77.73
2017-08-20T11:54:05.111Z,77.63
2017-08-20T11:55:05.747Z,77.53
2017-08-20T11:56:06.590Z,77.63
2017-08-20T11:57:07.232Z,77.34
2017-08-20T11:58:07.871Z,77.63
2017-08-20T11:59:08.506Z,77.83
2017-08-20T12:00:09.143Z,77.83
2017-08-20T12:01:09.782Z,77.92
2017-08-20T12:02:10.423Z,77.63
2017-08-20T12:03:11.056Z,77.83
2017-08-20T12:04:11.694Z,77.53
2017-08-20T12:05:12.531Z,76.95
2017-08-20T12:06:13.170Z,77.05
2017-08-20T12:07:13.811Z,77.34
2017-08-20T12:08:14.452Z,77.44
2017-08-20T12:09:15.083Z,77.34
2017-08-20T12:10:15.720Z,77.25
2017-08-20T12:11:16.363Z,76.95
2017-08-20T12:12:17.010Z,77.05
2017-08-20T12:13:17.848Z,77.15
2017-08-20T12:14:18.488Z,77.15
2017-08-20T12:15:19.122Z,76.95
2017-08-20T12:16:19.760Z,77.15
2017-08-20T12:17:20.401Z,76.95
2017-08-20T12:18:21.036Z,77.05
2017-08-20T12:19:21.672Z,76.86
2017-08-20T12:20:22.321Z,77.05
2017-08-20T12:21:23.157Z,77.15
2017-08-20T12:22:23.796Z,77.15
2017-08-20T12:23:24.438Z,76.67
2017-08-20T12:24:25.075Z,76.67
2017-08-20T12:25:25.716Z,77.25
2017-08-20T12:26:26.353Z,77.15
2017-08-20T12:27:26.994Z,76.57
2017-08-20T12:28:27.629Z,76.76
2017-08-20T12:29:28.416Z,76.67
2017-08-20T12:30:29.060Z,76.67
2017-08-20T12:31:29.698Z,76.95
2017-08-20T12:32:30.339Z,76.18
2017-08-20T12:33:30.973Z,76.28
2017-08-20T12:34:31.672Z,76.22
2017-08-20T12:35:32.309Z,76.18
2017-08-20T12:36:32.951Z,76.28
2017-08-20T12:37:33.784Z,76.32
2017-08-20T12:38:34.421Z,76.61
2017-08-20T12:39:35.059Z,76.51
2017-08-20T12:40:35.697Z,76.51
2017-08-20T12:41:36.340Z,76.12
2017-08-20T12:42:36.973Z,76.22
2017-08-20T12:43:37.612Z,76.12
2017-08-20T12:44:38.248Z,76.32
2017-08-20T12:45:38.895Z,75.74
2017-08-20T12:46:39.726Z,75.84
2017-08-20T12:47:40.366Z,75.74
2017-08-20T12:48:41.001Z,75.93
2017-08-20T12:49:41.643Z,76.03
2017-08-20T12:50:42.278Z,75.74
2017-08-20T12:51:42.915Z,76.22
2017-08-20T12:52:43.552Z,75.93
2017-08-20T12:53:44.191Z,76.03
2017-08-20T12:54:45.080Z,75.74
2017-08-20T12:55:45.722Z,76.03
2017-08-20T12:56:46.356Z,76.03
2017-08-20T12:57:47.000Z,76.03
2017-08-20T12:58:47.641Z,76.22
2017-08-20T12:59:48.275Z,76.22
2017-08-20T13:00:48.918Z,76.03